• Join FlightAware (Why Join?)
  • Login
  • US Flag 
03:46AM EDT


 

Airport Tracker/Info


-or-


 

Live Flight TrackerFlight Track Log ✈ UAL1034 ✈ 02-Jul-2013 ✈ KIAH - MPTO / PTY

Flight Track Log - Related Links

Times and Time Zones

All times are in EDT time to prevent confusion due to time zone crossing. See the UAL1034 flight status page for this flight to view local times or setup timezone preferences in your user account.

Time Position Orientation Groundspeed Altitude Reporting Facility
EDT Latitude Longitude Course Direction KTS MPH feet Rate Location/Type
04:41PM 29.9458 -95.3311 148° Southeast 220 253 1,300  Level Houston Center
04:42PM 29.9197 -95.2981 132° Southeast 229 264 2,100 1,860 Climbing Houston Center
04:43PM 29.8764 -95.2381 130° Southeast 276 318 4,200 2,580 Climbing Houston Center
04:44PM 29.6460 -95.1183 151° Southeast  Level FlightAware Approximate
04:44PM 29.8339 -95.1639 123° Southeast 285 328 7,100  Level Houston Center
04:45PM 29.5344 -95.0451 150° Southeast  Level FlightAware Approximate
04:45PM 29.7925 -95.0822 120° Southeast 293 337 10,000  Level Houston Center
04:46PM 29.4242 -94.9690 148° Southeast  Level FlightAware Approximate
04:46PM 29.6897 -95.0075 148° Southeast 320 368 13,700  Level Houston Center
04:47PM 29.5947 -94.9725 162° South 365 420 14,900 1,200 Climbing Houston Center
04:48PM 29.4833 -94.9364 164° South 406 467 16,200 1,680 Climbing Houston Center
04:49PM 29.3653 -94.8975 164° South 431 496 18,400 1,920 Climbing Houston Center
04:50PM 29.2536 -94.8339 154° Southeast 459 528 20,300 1,860 Climbing Houston Center
04:51PM 29.1675 -94.6750 122° Southeast 492 566 22,300 1,680 Climbing Houston Center
04:52PM 29.0950 -94.5375 121° Southeast 503 579 23,800 1,380 Climbing Houston Center
04:53PM 29.0128 -94.4039 125° Southeast 514 592 25,200 1,500 Climbing Houston Center
04:54PM 28.9200 -94.2769 130° Southeast 521 600 27,000 1,800 Climbing Houston Center
04:55PM 28.8283 -94.1525 130° Southeast 514 592 29,000 1,920 Climbing Houston Center
04:56PM 28.7214 -94.0078 130° Southeast 500 575 31,000 960 Climbing Houston Center
04:57PM 28.6319 -93.8856 130° Southeast 502 578 31,000  Level Houston Center
04:59PM 28.5414 -93.7647 130° Southeast 503 579 31,000  Level Houston Center
05:00PM 28.4522 -93.6408 129° Southeast 505 581 31,100 720 Climbing Houston Center
05:01PM 28.3636 -93.5217 130° Southeast 497 572 32,500 900 Climbing Houston Center
05:02PM 28.2764 -93.4025 130° Southeast 492 566 33,000 240 Climbing Houston Center
05:03PM 28.1711 -93.2625 130° Southeast 488 562 33,000  Level Houston Center
05:04PM 28.0811 -93.1425 130° Southeast 487 560 33,000  Level Houston Center
05:05PM 27.9944 -93.0239 130° Southeast 488 562 33,000  Level Houston Center
05:06PM 27.9064 -92.9081 131° Southeast 488 562 33,000  Level Houston Center
05:07PM 27.8183 -92.7917 131° Southeast 488 562 33,000  Level Houston Center
05:08PM 27.7306 -92.6753 130° Southeast 487 560 33,000  Level Houston Center
05:09PM 27.6247 -92.5369 131° Southeast 487 560 33,000  Level Houston Center
05:10PM 27.5367 -92.4214 131° Southeast 487 560 33,000  Level Houston Center
05:11PM 27.4483 -92.3033 130° Southeast 491 565 33,000  Level Houston Center
05:12PM 27.3589 -92.1900 132° Southeast 488 562 33,000  Level Houston Center
05:13PM 27.2708 -92.0736 130° Southeast 489 563 33,000  Level Houston Center
05:14PM 27.1800 -91.9597 132° Southeast 489 563 33,000  Level Houston Center
05:15PM 27.0517 -91.8497 143° Southeast 483 556 33,000  Level Houston Center
05:17PM 26.9093 -91.7341 144° Southeast  Level FlightAware Approximate
05:24PM 26.2026 -91.1708 146° Southeast  Level FlightAware Approximate
05:25PM 26.1002 -91.0928 146° Southeast  Level FlightAware Approximate
05:26PM 25.9978 -91.0150 145° Southeast  Level FlightAware Approximate
05:27PM 25.8963 -90.9358 145° Southeast  Level FlightAware Approximate
05:28PM 25.7947 -90.8568 145° Southeast  Level FlightAware Approximate
05:29PM 25.6930 -90.7779 145° Southeast  Level FlightAware Approximate
05:30PM 25.5914 -90.6991 145° Southeast  Level FlightAware Approximate
05:31PM 25.4896 -90.6205 145° Southeast  Level FlightAware Approximate
05:32PM 25.3879 -90.5420 145° Southeast  Level FlightAware Approximate
05:33PM 25.2868 -90.4626 144° Southeast  Level FlightAware Approximate
05:34PM 25.1864 -90.3820 144° Southeast  Level FlightAware Approximate
05:35PM 25.0860 -90.3016 144° Southeast  Level FlightAware Approximate
05:36PM 24.9856 -90.2214 144° Southeast  Level FlightAware Approximate
05:37PM 24.8851 -90.1412 144° Southeast  Level FlightAware Approximate
05:38PM 24.7837 -90.0626 146° Southeast  Level FlightAware Approximate
05:39PM 24.6812 -89.9857 146° Southeast  Level FlightAware Approximate
05:40PM 24.5787 -89.9089 146° Southeast  Level FlightAware Approximate
05:41PM 24.4781 -89.8295 146° Southeast  Level FlightAware Approximate
05:42PM 24.3755 -89.7531 146° Southeast  Level FlightAware Approximate
05:43PM 24.2728 -89.6769 146° Southeast  Level FlightAware Approximate
05:44PM 24.1700 -89.6007 146° Southeast  Level FlightAware Approximate
05:45PM 24.0672 -89.5247 146° Southeast  Level FlightAware Approximate
05:46PM 23.9644 -89.4489 146° Southeast  Level FlightAware Approximate
05:47PM 23.8615 -89.3731 146° Southeast  Level FlightAware Approximate
05:48PM 23.7586 -89.2974 146° Southeast  Level FlightAware Approximate
05:49PM 23.6559 -89.2215 146° Southeast  Level FlightAware Approximate
05:50PM 23.5534 -89.1453 146° Southeast  Level FlightAware Approximate
05:51PM 23.4509 -89.0693 146° Southeast  Level FlightAware Approximate
05:52PM 23.3483 -88.9934 146° Southeast  Level FlightAware Approximate
05:53PM 23.2457 -88.9176 146° Southeast  Level FlightAware Approximate
05:54PM 23.1430 -88.8419 146° Southeast  Level FlightAware Approximate
05:55PM 23.0403 -88.7663 146° Southeast  Level FlightAware Approximate
05:56PM 22.9376 -88.6908 146° Southeast  Level FlightAware Approximate
05:57PM 22.8352 -88.6149 146° Southeast  Level FlightAware Approximate
05:58PM 22.7327 -88.5392 146° Southeast  Level FlightAware Approximate
05:59PM 22.6302 -88.4635 146° Southeast  Level FlightAware Approximate
06:00PM 22.5270 -88.3890 147° Southeast  Level FlightAware Approximate
06:01PM 22.4228 -88.3164 147° Southeast  Level FlightAware Approximate
06:02PM 22.3185 -88.2438 147° Southeast  Level FlightAware Approximate
06:03PM 22.2141 -88.1714 147° Southeast  Level FlightAware Approximate
06:04PM 22.1107 -88.0976 146° Southeast  Level FlightAware Approximate
06:05PM 22.0075 -88.0233 146° Southeast  Level FlightAware Approximate
06:06PM 21.9044 -87.9491 146° Southeast  Level FlightAware Approximate
06:07PM 21.8012 -87.8750 146° Southeast  Level FlightAware Approximate
06:08PM 21.6980 -87.8010 146° Southeast  Level FlightAware Approximate
06:09PM 21.5910 -87.7245 146° Southeast  Level FlightAware Approximate
06:10PM 21.4841 -87.6481 146° Southeast  Level FlightAware Approximate
06:11PM 21.3770 -87.5718 146° Southeast  Level FlightAware Approximate
06:12PM 21.2699 -87.4958 147° Southeast  Level FlightAware Approximate
06:13PM 21.1628 -87.4198 147° Southeast  Level FlightAware Approximate
06:14PM 21.0556 -87.3440 147° Southeast  Level FlightAware Approximate
06:15PM 20.9483 -87.2683 147° Southeast  Level FlightAware Approximate
06:16PM 20.8411 -87.1927 147° Southeast  Level FlightAware Approximate
06:17PM 20.7338 -87.1172 147° Southeast  Level FlightAware Approximate
06:18PM 20.6265 -87.0418 147° Southeast  Level FlightAware Approximate
06:19PM 20.5191 -86.9665 147° Southeast  Level FlightAware Approximate
06:20PM 20.4118 -86.8913 147° Southeast  Level FlightAware Approximate
06:21PM 20.3043 -86.8162 147° Southeast  Level FlightAware Approximate
06:22PM 20.1969 -86.7412 147° Southeast  Level FlightAware Approximate
06:23PM 20.0894 -86.6663 147° Southeast  Level FlightAware Approximate
06:24PM 19.9819 -86.5916 147° Southeast  Level FlightAware Approximate
06:25PM 19.8743 -86.5169 147° Southeast  Level FlightAware Approximate
06:26PM 19.7668 -86.4423 147° Southeast  Level FlightAware Approximate
06:27PM 19.6592 -86.3679 147° Southeast  Level FlightAware Approximate
06:28PM 19.5517 -86.2932 147° Southeast  Level FlightAware Approximate
06:29PM 19.4443 -86.2185 147° Southeast  Level FlightAware Approximate
06:30PM 19.3368 -86.1439 147° Southeast  Level FlightAware Approximate
06:31PM 19.2294 -86.0695 147° Southeast  Level FlightAware Approximate
06:32PM 19.1219 -85.9951 147° Southeast  Level FlightAware Approximate
06:33PM 19.0143 -85.9208 147° Southeast  Level FlightAware Approximate
06:34PM 18.9067 -85.8466 147° Southeast  Level FlightAware Approximate
06:35PM 18.7992 -85.7725 147° Southeast  Level FlightAware Approximate
06:36PM 18.6915 -85.6985 147° Southeast  Level FlightAware Approximate
06:37PM 18.5839 -85.6246 147° Southeast  Level FlightAware Approximate
06:38PM 18.4762 -85.5508 147° Southeast  Level FlightAware Approximate
06:39PM 18.3685 -85.4771 147° Southeast  Level FlightAware Approximate
06:40PM 18.2607 -85.4035 147° Southeast  Level FlightAware Approximate
06:41PM 18.1530 -85.3299 147° Southeast  Level FlightAware Approximate
06:42PM 18.0452 -85.2565 147° Southeast  Level FlightAware Approximate
06:43PM 17.9373 -85.1831 147° Southeast  Level FlightAware Approximate
06:44PM 17.8295 -85.1099 147° Southeast  Level FlightAware Approximate
06:45PM 17.7216 -85.0367 147° Southeast  Level FlightAware Approximate
06:46PM 17.6130 -84.9649 148° Southeast  Level FlightAware Approximate
06:47PM 17.5042 -84.8932 148° Southeast  Level FlightAware Approximate
06:48PM 17.3955 -84.8216 148° Southeast  Level FlightAware Approximate
06:49PM 17.2867 -84.7501 148° Southeast  Level FlightAware Approximate
06:50PM 17.1779 -84.6786 148° Southeast  Level FlightAware Approximate
06:51PM 17.0691 -84.6072 148° Southeast  Level FlightAware Approximate
06:52PM 16.9608 -84.5351 148° Southeast  Level FlightAware Approximate
06:53PM 16.8524 -84.4631 148° Southeast  Level FlightAware Approximate
06:54PM 16.7439 -84.3912 148° Southeast  Level FlightAware Approximate
06:55PM 16.6355 -84.3194 148° Southeast  Level FlightAware Approximate
06:56PM 16.5270 -84.2477 148° Southeast  Level FlightAware Approximate
06:57PM 16.4185 -84.1760 148° Southeast  Level FlightAware Approximate
06:58PM 16.3100 -84.1044 148° Southeast  Level FlightAware Approximate
06:59PM 16.2015 -84.0329 148° Southeast  Level FlightAware Approximate
07:00PM 16.0929 -83.9615 148° Southeast  Level FlightAware Approximate
07:01PM 15.9843 -83.8901 148° Southeast  Level FlightAware Approximate
07:02PM 15.8757 -83.8189 148° Southeast  Level FlightAware Approximate
07:03PM 15.7671 -83.7477 148° Southeast  Level FlightAware Approximate
07:04PM 15.6584 -83.6766 148° Southeast  Level FlightAware Approximate
07:05PM 15.5497 -83.6055 148° Southeast  Level FlightAware Approximate
07:06PM 15.4410 -83.5346 148° Southeast  Level FlightAware Approximate
07:07PM 15.3323 -83.4637 148° Southeast  Level FlightAware Approximate
07:08PM 15.2236 -83.3928 148° Southeast  Level FlightAware Approximate
07:09PM 15.1149 -83.3219 148° Southeast  Level FlightAware Approximate
07:10PM 15.0063 -83.2510 148° Southeast  Level FlightAware Approximate
07:11PM 14.8976 -83.1801 148° Southeast  Level FlightAware Approximate
07:12PM 14.7889 -83.1093 148° Southeast  Level FlightAware Approximate
07:13PM 14.6802 -83.0386 148° Southeast  Level FlightAware Approximate
07:14PM 14.5715 -82.9679 148° Southeast  Level FlightAware Approximate
07:15PM 14.4628 -82.8973 148° Southeast  Level FlightAware Approximate
07:16PM 14.3540 -82.8268 148° Southeast  Level FlightAware Approximate
07:17PM 14.2452 -82.7564 148° Southeast  Level FlightAware Approximate
07:18PM 14.1364 -82.6860 148° Southeast  Level FlightAware Approximate
07:19PM 14.0276 -82.6157 148° Southeast  Level FlightAware Approximate
07:20PM 13.9188 -82.5454 148° Southeast  Level FlightAware Approximate
07:21PM 13.8096 -82.4758 148° Southeast  Level FlightAware Approximate
07:22PM 13.7003 -82.4063 148° Southeast  Level FlightAware Approximate
07:23PM 13.5911 -82.3368 148° Southeast  Level FlightAware Approximate
07:24PM 13.4818 -82.2675 148° Southeast  Level FlightAware Approximate
07:25PM 13.3725 -82.1982 148° Southeast  Level FlightAware Approximate
07:26PM 13.2632 -82.1289 148° Southeast  Level FlightAware Approximate
07:27PM 13.1538 -82.0597 148° Southeast  Level FlightAware Approximate
07:28PM 13.0444 -81.9906 148° Southeast  Level FlightAware Approximate
07:29PM 12.9350 -81.9216 148° Southeast  Level FlightAware Approximate
07:30PM 12.8256 -81.8526 148° Southeast  Level FlightAware Approximate
07:31PM 12.7162 -81.7836 148° Southeast  Level FlightAware Approximate
07:32PM 12.6052 -81.7137 148° Southeast  Level FlightAware Approximate
07:33PM 12.4921 -81.6472 151° Southeast  Level FlightAware Approximate
07:34PM 12.3786 -81.5816 151° Southeast  Level FlightAware Approximate
07:35PM 12.2651 -81.5161 151° Southeast  Level FlightAware Approximate
07:36PM 12.1516 -81.4506 151° Southeast  Level FlightAware Approximate
07:37PM 12.0380 -81.3852 151° Southeast  Level FlightAware Approximate
07:38PM 11.9245 -81.3198 151° Southeast  Level FlightAware Approximate
07:39PM 11.8109 -81.2545 151° Southeast  Level FlightAware Approximate
07:40PM 11.6973 -81.1892 151° Southeast  Level FlightAware Approximate
07:41PM 11.5837 -81.1240 151° Southeast  Level FlightAware Approximate
07:42PM 11.4701 -81.0588 151° Southeast  Level FlightAware Approximate
07:43PM 11.3564 -80.9937 151° Southeast  Level FlightAware Approximate
07:44PM 11.2428 -80.9286 151° Southeast  Level FlightAware Approximate
07:45PM 11.1291 -80.8636 151° Southeast  Level FlightAware Approximate
07:46PM 11.0154 -80.7987 151° Southeast  Level FlightAware Approximate
07:47PM 10.9017 -80.7338 151° Southeast  Level FlightAware Approximate
07:48PM 10.7880 -80.6689 151° Southeast  Level FlightAware Approximate
07:49PM 10.6743 -80.6041 151° Southeast  Level FlightAware Approximate
07:50PM 10.5606 -80.5394 151° Southeast  Level FlightAware Approximate
07:51PM 10.4439 -80.4803 154° Southeast  Level FlightAware Approximate
07:52PM 10.3306 -80.4153 154° Southeast  Level FlightAware Approximate
07:53PM 10.2150 -80.3542 152° Southeast  Level FlightAware Approximate
07:54PM 10.0998 -80.2922 152° Southeast  Level FlightAware Approximate
07:55PM 9.9854 -80.2289 151° Southeast  Level FlightAware Approximate
07:56PM 9.8710 -80.1654 151° Southeast  Level FlightAware Approximate
07:57PM 9.7571 -80.1012 150° Southeast  Level FlightAware Approximate
07:58PM 9.6443 -80.0349 150° Southeast  Level FlightAware Approximate
07:59PM 9.5316 -79.9686 150° Southeast  Level FlightAware Approximate
08:00PM 9.4167 -79.9061 153° Southeast  Level FlightAware Approximate
08:01PM 9.3011 -79.8453 153° Southeast  Level FlightAware Approximate
08:02PM 9.1854 -79.7844 153° Southeast  Level FlightAware Approximate
08:03PM 9.0744 -79.7152 148° Southeast  Level FlightAware Approximate
08:04PM 8.9588 -79.6544 154° Southeast  Level FlightAware Approximate
08:05PM 8.8428 -79.5946 143° Southeast  Level FlightAware Approximate
08:06PM 8.8338 -79.5248 26° Northeast  Level FlightAware Approximate
08:07PM 8.9394 -79.4497 37° Northeast  Level FlightAware Approximate
08:08PM 9.0484 -79.3776 31° Northeast  Level FlightAware Approximate
08:09PM 9.0667 -79.3667 31° Northeast  Level FlightAware Approximate
08:10PM 9.0714 -79.3835 31° Northeast  Level Estimated